Time;durP1;ratioP1;P1;durP2;ratioP2;P2;SDS_P1;SDS_P2;PMS_P1;PMS_P2;Temp;Humidity;BMP_temperature;BMP_pressure;BME280_temperature;BME280_humidity;BME280_pressure;Samples;Min_cycle;Max_cycle;Signal;HPM_P1;HPM_P2
2022/01/05 00:02:12;;;;;;;37.92;23.88;;;;;;;6.75;77.04;99820.38;5038669;28;20037;-76
2022/01/05 00:04:37;;;;;;;32.67;21.83;;;;;;;6.71;76.83;99792.53;5037636;28;20278;-73
2022/01/05 00:07:04;;;;;;;28.40;22.85;;;;;;;6.53;77.59;99795.91;5019728;28;20320;-75
2022/01/05 00:09:29;;;;;;;30.83;22.98;;;;;;;6.78;77.51;99826.47;5037057;28;20037;-83
2022/01/05 00:11:56;;;;;;;29.45;23.35;;;;;;;6.88;77.11;99823.94;5036686;28;20041;-74
2022/01/05 00:14:21;;;;;;;32.42;22.92;;;;;;;6.80;76.87;99820.38;5038239;28;20032;-76
2022/01/05 00:16:47;;;;;;;31.73;22.73;;;;;;;6.92;76.74;99820.44;5033981;28;20415;-72
2022/01/05 00:19:13;;;;;;;33.15;23.58;;;;;;;6.72;76.86;99809.06;5038508;28;20420;-74
2022/01/05 00:21:40;;;;;;;33.80;23.33;;;;;;;6.60;76.95;99801.16;5038613;28;20037;-76
2022/01/05 00:24:07;;;;;;;29.70;22.10;;;;;;;6.67;77.22;99821.16;5034074;28;20073;-85
2022/01/05 00:26:32;;;;;;;29.02;22.10;;;;;;;6.63;77.11;99814.22;5035896;28;20484;-74
2022/01/05 00:28:58;;;;;;;34.63;23.65;;;;;;;6.73;77.00;99827.31;5018020;28;20112;-74
2022/01/05 00:31:24;;;;;;;26.00;20.65;;;;;;;6.47;77.17;99795.00;5035469;28;20049;-75
2022/01/05 00:33:50;;;;;;;29.45;20.88;;;;;;;6.34;77.22;99789.72;5037659;28;20392;-75
2022/01/05 00:36:16;;;;;;;32.25;22.02;;;;;;;6.48;77.21;99804.53;5038781;28;20415;-81
2022/01/05 00:38:42;;;;;;;29.45;20.88;;;;;;;6.21;77.71;99793.06;5020536;28;20105;-76
2022/01/05 00:41:07;;;;;;;29.60;21.27;;;;;;;6.32;77.22;99786.22;5037819;28;20566;-76
2022/01/05 00:43:33;;;;;;;26.25;19.30;;;;;;;6.51;76.99;99805.44;5038316;28;20597;-76
2022/01/05 00:45:58;;;;;;;25.63;19.70;;;;;;;6.48;76.80;99802.81;5039780;28;20064;-75
2022/01/05 00:48:25;;;;;;;20.92;18.45;;;;;;;6.17;77.26;99777.41;5022561;28;20532;-75
2022/01/05 00:50:50;;;;;;;25.42;19.25;;;;;;;6.38;76.68;99784.50;5022835;28;20086;-76
2022/01/05 00:53:16;;;;;;;27.13;19.40;;;;;;;6.37;76.62;99782.75;5044838;28;20116;-74
2022/01/05 00:55:41;;;;;;;27.75;20.55;;;;;;;6.64;76.00;99801.16;5027198;28;20025;-74
2022/01/05 00:58:07;;;;;;;30.10;20.55;;;;;;;6.46;76.31;99786.31;5043608;28;20120;-75
2022/01/05 01:00:33;;;;;;;29.13;19.02;;;;;;;6.42;76.03;99779.31;5043932;28;20045;-74
2022/01/05 01:02:58;;;;;;;24.70;18.73;;;;;;;6.46;76.44;99785.41;5043274;28;20033;-68
2022/01/05 01:05:24;;;;;;;21.67;18.10;;;;;;;6.29;76.18;99773.16;5042011;28;20044;-68
2022/01/05 01:07:49;;;;;;;24.58;17.92;;;;;;;6.59;76.02;99817.66;5041047;28;20551;-72
2022/01/05 01:10:15;;;;;;;22.65;18.25;;;;;;;6.67;75.66;99808.13;5040627;28;20090;-72
2022/01/05 01:12:41;;;;;;;23.85;17.98;;;;;;;6.58;75.59;99806.38;5042073;28;20116;-76
2022/01/05 01:15:09;;;;;;;24.20;17.88;;;;;;;6.58;75.57;99816.78;5041682;28;20078;-72
2022/01/05 01:17:34;;;;;;;22.00;18.30;;;;;;;6.47;75.71;99779.34;5039952;28;20104;-74
2022/01/05 01:20:00;;;;;;;24.73;16.42;;;;;;;6.50;75.39;99785.44;5041141;28;20408;-74
2022/01/05 01:22:29;;;;;;;22.13;17.10;;;;;;;6.61;75.20;99803.78;5040216;28;20095;-71
2022/01/05 01:24:54;;;;;;;27.75;18.30;;;;;;;6.39;75.59;99788.84;5041729;28;20045;-75
2022/01/05 01:27:20;;;;;;;26.48;17.42;;;;;;;6.50;75.23;99790.66;5042513;28;20099;-72
2022/01/05 01:29:45;;;;;;;21.40;16.65;;;;;;;6.54;74.91;99797.63;5037882;28;20477;-76
2022/01/05 01:32:11;;;;;;;23.17;18.20;;;;;;;6.47;75.17;99777.63;5042031;28;20159;-73
2022/01/05 01:34:36;;;;;;;23.10;19.25;;;;;;;6.51;75.29;99794.16;5041996;28;20045;-73
2022/01/05 01:37:02;;;;;;;24.33;18.60;;;;;;;6.29;76.48;99806.16;5041747;28;20048;-73
2022/01/05 01:39:28;;;;;;;22.20;16.60;;;;;;;6.08;76.33;99766.03;5023296;28;20045;-73
2022/01/05 01:41:53;;;;;;;24.20;17.23;;;;;;;6.36;75.85;99786.22;5042087;28;20120;-73
2022/01/05 01:44:19;;;;;;;23.33;18.38;;;;;;;6.39;75.70;99781.03;5041997;28;20115;-73
2022/01/05 01:46:44;;;;;;;25.75;18.05;;;;;;;6.38;76.04;99798.41;5041240;28;20056;-75
2022/01/05 01:49:10;;;;;;;23.25;18.35;;;;;;;6.17;76.43;99769.59;5022995;28;20053;-79
2022/01/05 01:51:35;;;;;;;23.58;17.27;;;;;;;6.01;76.53;99768.59;5041310;28;20089;-78
2022/01/05 01:54:02;;;;;;;30.77;20.08;;;;;;;6.10;76.57;99774.75;5023084;28;20037;-75
2022/01/05 01:56:32;;;;;;;32.70;20.70;;;;;;;6.18;76.61;99776.53;5041322;28;20043;-73
2022/01/05 01:58:59;;;;;;;21.88;17.80;;;;;;;6.01;76.61;99760.78;5041469;28;20057;-73
2022/01/05 02:01:24;;;;;;;23.80;17.67;;;;;;;6.11;76.41;99768.69;5023308;28;20088;-74
2022/01/05 02:03:50;;;;;;;29.00;19.40;;;;;;;5.96;77.03;99776.38;5023766;28;20481;-73
2022/01/05 02:06:15;;;;;;;23.83;18.83;;;;;;;6.25;76.64;99779.22;5022863;28;20567;-73
2022/01/05 02:08:41;;;;;;;25.65;18.75;;;;;;;6.18;76.79;99777.44;5041975;28;20526;-73
2022/01/05 02:11:08;;;;;;;24.77;19.52;;;;;;;6.26;76.39;99764.44;5040552;28;20040;-73
2022/01/05 02:13:33;;;;;;;27.58;20.10;;;;;;;6.22;76.44;99779.19;5041079;28;20484;-74
2022/01/05 02:16:32;;;;;;;24.15;19.65;;;;;;;6.15;76.80;99784.34;5063228;27;20622;-75
2022/01/05 02:18:58;;;;;;;30.13;20.27;;;;;;;6.07;76.71;99769.53;5056249;28;20048;-74
2022/01/05 02:21:25;;;;;;;27.88;18.83;;;;;;;5.99;77.30;99784.19;5058407;28;20033;-74
2022/01/05 02:23:51;;;;;;;22.38;18.67;;;;;;;5.57;78.55;99769.03;5058505;28;20049;-75
2022/01/05 02:26:17;;;;;;;27.40;20.05;;;;;;;5.99;77.31;99765.09;5058372;28;20499;-74
2022/01/05 02:28:43;;;;;;;28.90;19.80;;;;;;;6.06;77.26;99770.41;5057779;28;20053;-74
2022/01/05 02:31:09;;;;;;;29.95;20.55;;;;;;;5.78;77.80;99761.41;5057575;28;20090;-76
2022/01/05 02:33:35;;;;;;;25.23;19.48;;;;;;;6.04;77.50;99764.31;5056407;28;20589;-76
2022/01/05 02:36:01;;;;;;;23.58;18.58;;;;;;;6.09;77.46;99783.44;5058124;28;20029;-75
2022/01/05 02:38:27;;;;;;;26.25;19.20;;;;;;;5.89;77.24;99759.78;5058833;28;20032;-74
2022/01/05 02:40:52;;;;;;;24.50;18.10;;;;;;;6.15;77.21;99776.53;5056895;28;20115;-81
2022/01/05 02:43:18;;;;;;;25.88;17.52;;;;;;;6.03;77.60;99759.94;5057264;28;20374;-75
2022/01/05 02:45:43;;;;;;;25.10;19.38;;;;;;;5.97;77.36;99743.38;5057651;28;20059;-76
2022/01/05 02:48:09;;;;;;;21.70;18.25;;;;;;;6.07;77.27;99743.47;5056709;28;20362;-76
2022/01/05 02:50:35;;;;;;;28.80;18.40;;;;;;;6.34;76.91;99771.47;5057095;28;20543;-73
2022/01/05 02:53:00;;;;;;;30.58;18.83;;;;;;;6.17;76.84;99740.94;5054893;28;20041;-73
2022/01/05 02:55:26;;;;;;;27.52;19.50;;;;;;;6.21;76.73;99737.50;5057072;28;20102;-73
2022/01/05 02:57:52;;;;;;;25.77;19.23;;;;;;;6.27;76.65;99738.38;5057176;28;20071;-75
2022/01/05 03:00:17;;;;;;;28.42;18.30;;;;;;;6.27;76.42;99753.16;5056824;28;20496;-77
2022/01/05 03:02:43;;;;;;;25.55;18.92;;;;;;;6.31;76.88;99768.81;5057713;28;20468;-76
2022/01/05 03:05:10;;;;;;;22.75;18.17;;;;;;;6.32;76.83;99746.25;5054510;28;20389;-75
2022/01/05 03:07:39;;;;;;;22.58;18.25;;;;;;;6.42;76.50;99744.59;5056744;28;20053;-75
2022/01/05 03:10:07;;;;;;;23.70;19.05;;;;;;;6.56;76.15;99766.38;5054348;28;20032;-72
2022/01/05 03:12:33;;;;;;;20.92;17.42;;;;;;;6.37;76.08;99731.53;5056437;28;20039;-72
2022/01/05 03:14:58;;;;;;;26.85;20.88;;;;;;;6.38;76.33;99732.41;5055417;28;20044;-75
2022/01/05 03:17:24;;;;;;;24.23;17.58;;;;;;;6.46;76.69;99755.03;5052834;28;20029;-73
2022/01/05 03:19:49;;;;;;;24.13;16.80;;;;;;;6.40;76.20;99725.47;5055943;28;20041;-78
2022/01/05 03:22:15;;;;;;;23.73;18.77;;;;;;;6.38;76.61;99730.66;5056360;28;20531;-75
2022/01/05 03:24:40;;;;;;;21.98;18.08;;;;;;;6.46;76.56;99744.63;5055295;28;20473;-73
2022/01/05 03:27:06;;;;;;;27.90;19.63;;;;;;;6.28;76.55;99715.84;5062316;28;20506;-73
2022/01/05 03:29:31;;;;;;;31.00;18.42;;;;;;;6.49;76.42;99735.94;5043561;28;20032;-74
2022/01/05 03:31:57;;;;;;;27.88;17.73;;;;;;;6.65;76.01;99726.44;5058551;28;20037;-75
2022/01/05 03:34:23;;;;;;;22.05;16.55;;;;;;;6.73;75.59;99743.00;5041186;28;20384;-72
2022/01/05 03:36:48;;;;;;;29.90;18.42;;;;;;;6.65;75.52;99716.00;5041972;28;20041;-77
2022/01/05 03:39:14;;;;;;;27.92;16.65;;;;;;;6.71;75.22;99731.69;5041339;28;20037;-73
2022/01/05 03:41:41;;;;;;;25.60;17.38;;;;;;;6.66;75.27;99720.38;5043054;28;20041;-73
2022/01/05 03:44:06;;;;;;;22.75;16.85;;;;;;;6.40;75.97;99722.84;5044557;28;20367;-79
2022/01/05 03:46:32;;;;;;;21.92;14.20;;;;;;;6.62;75.91;99749.91;5045090;28;20147;-74
2022/01/05 03:48:57;;;;;;;23.70;17.20;;;;;;;6.61;75.64;99733.38;5042853;28;20047;-73
2022/01/05 03:51:23;;;;;;;25.52;16.52;;;;;;;6.84;75.05;99751.75;5044556;28;20426;-77
2022/01/05 03:53:48;;;;;;;20.75;16.42;;;;;;;6.65;75.14;99744.69;5043638;28;20559;-78
2022/01/05 03:56:14;;;;;;;25.77;17.95;;;;;;;6.71;74.72;99729.09;5045188;28;20037;-75
2022/01/05 03:58:40;;;;;;;26.67;16.33;;;;;;;6.66;74.94;99742.09;5025302;28;20037;-74
2022/01/05 04:01:05;;;;;;;26.95;17.15;;;;;;;6.54;75.45;99736.84;5044102;28;20060;-74
2022/01/05 04:03:31;;;;;;;19.10;16.20;;;;;;;6.44;75.80;99720.28;5042897;28;20124;-74
2022/01/05 04:05:56;;;;;;;26.35;15.90;;;;;;;6.42;75.51;99723.75;5043871;28;20065;-76
2022/01/05 04:08:22;;;;;;;21.13;16.20;;;;;;;6.66;75.02;99717.78;5044240;28;20482;-74
2022/01/05 04:10:47;;;;;;;29.38;17.30;;;;;;;6.63;74.95;99725.59;5044609;28;20379;-74
2022/01/05 04:13:14;;;;;;;24.35;16.73;;;;;;;6.46;75.31;99717.66;5043329;28;20077;-74
2022/01/05 04:15:40;;;;;;;20.83;16.30;;;;;;;6.64;74.92;99725.56;5041959;28;20044;-74
2022/01/05 04:18:06;;;;;;;22.90;16.77;;;;;;;6.91;74.61;99737.00;5038990;28;20059;-74
2022/01/05 04:20:32;;;;;;;18.52;14.75;;;;;;;6.70;74.29;99714.31;5042510;28;20487;-74
2022/01/05 04:22:57;;;;;;;23.13;16.08;;;;;;;6.65;75.05;99732.56;5042283;28;20061;-80
2022/01/05 04:25:24;;;;;;;32.35;17.05;;;;;;;6.63;75.12;99713.41;5042375;28;20033;-74
2022/01/05 04:27:49;;;;;;;24.13;16.98;;;;;;;6.70;74.94;99714.31;5042787;28;21521;-76
2022/01/05 04:30:15;;;;;;;22.92;16.63;;;;;;;6.51;75.14;99713.38;5040603;28;20048;-72
2022/01/05 04:32:40;;;;;;;23.17;17.38;;;;;;;6.84;74.63;99738.72;5042827;28;20033;-73
2022/01/05 04:35:06;;;;;;;27.23;15.48;;;;;;;6.48;75.07;99695.94;5039389;28;20071;-73
2022/01/05 04:37:32;;;;;;;22.33;16.13;;;;;;;6.56;74.74;99711.66;5041448;28;20540;-74
2022/01/05 04:39:59;;;;;;;25.27;17.45;;;;;;;6.53;74.94;99703.78;5038326;28;20047;-73
2022/01/05 04:42:26;;;;;;;22.63;17.08;;;;;;;6.61;75.49;99727.31;5041550;28;20063;-73
2022/01/05 04:44:52;;;;;;;27.27;18.25;;;;;;;6.39;75.19;99713.28;5040482;28;20524;-74
2022/01/05 04:47:17;;;;;;;26.27;15.90;;;;;;;6.39;75.38;99724.59;5040904;28;20100;-73
2022/01/05 04:49:43;;;;;;;23.92;17.90;;;;;;;6.19;75.53;99705.34;5039733;28;20120;-72
2022/01/05 04:52:08;;;;;;;25.80;19.83;;;;;;;6.36;75.12;99734.97;5039683;28;20727;-72
2022/01/05 04:54:34;;;;;;;25.00;18.80;;;;;;;6.07;75.78;99711.38;5039515;28;20048;-74
2022/01/05 04:57:00;;;;;;;23.98;16.52;;;;;;;5.91;76.25;99732.03;5041596;28;20530;-73
2022/01/05 05:00:30;;;;;;;24.83;19.25;;;;;;;5.92;76.17;99717.28;5084503;27;20621;-78
2022/01/05 05:02:56;;;;;;;27.13;17.90;;;;;;;6.05;76.07;99746.94;5056681;27;20123;-78
2022/01/05 05:05:21;;;;;;;27.90;20.20;;;;;;;5.78;76.57;99730.19;5059796;28;20061;-72
2022/01/05 05:07:47;;;;;;;28.38;18.85;;;;;;;5.81;76.22;99714.59;5062876;28;20040;-74
2022/01/05 05:10:12;;;;;;;26.65;18.88;;;;;;;5.64;76.86;99713.59;5068300;28;20143;-72
2022/01/05 05:12:38;;;;;;;24.73;18.52;;;;;;;5.61;76.85;99709.22;5059070;28;20693;-72
2022/01/05 05:15:03;;;;;;;27.60;18.77;;;;;;;5.76;76.89;99721.53;5057081;28;20033;-72
2022/01/05 05:17:29;;;;;;;26.70;19.23;;;;;;;5.82;76.86;99737.16;5056510;28;20040;-73
2022/01/05 05:19:55;;;;;;;20.70;17.52;;;;;;;5.65;77.26;99734.44;5057865;28;20049;-72
2022/01/05 05:22:20;;;;;;;23.73;17.80;;;;;;;5.83;76.97;99738.94;5059404;28;20047;-76
2022/01/05 05:24:46;;;;;;;26.17;20.00;;;;;;;5.83;76.69;99730.22;5056653;28;20127;-79
2022/01/05 05:27:11;;;;;;;22.13;18.00;;;;;;;5.70;76.75;99721.47;5057382;28;20064;-79
2022/01/05 05:29:37;;;;;;;21.35;17.30;;;;;;;5.72;76.59;99712.78;5056994;28;20124;-76
2022/01/05 05:32:02;;;;;;;31.38;18.50;;;;;;;5.97;76.70;99731.25;5057264;28;20045;-73
2022/01/05 05:34:28;;;;;;;21.70;15.77;;;;;;;5.91;76.41;99716.41;5056194;28;20382;-74
2022/01/05 05:36:53;;;;;;;33.25;18.20;;;;;;;5.94;76.75;99720.81;5057095;28;20688;-73
2022/01/05 05:39:19;;;;;;;23.98;17.45;;;;;;;5.84;76.46;99699.00;5055826;28;20068;-73
2022/01/05 05:41:44;;;;;;;25.58;17.02;;;;;;;5.96;76.06;99692.19;5056193;28;20048;-74
2022/01/05 05:44:10;;;;;;;27.10;19.30;;;;;;;6.14;75.70;99713.16;5084171;28;20484;-74
2022/01/05 05:46:35;;;;;;;24.55;18.40;;;;;;;6.18;75.13;99709.72;5082432;27;20372;-79
2022/01/05 05:49:01;;;;;;;28.17;18.58;;;;;;;6.19;75.40;99710.56;5068142;28;20427;-75
2022/01/05 05:51:26;;;;;;;22.52;17.80;;;;;;;6.20;75.57;99726.19;5084096;28;20051;-75
2022/01/05 05:53:52;;;;;;;25.63;17.42;;;;;;;6.22;75.50;99728.81;5055154;28;20068;-79
2022/01/05 05:56:17;;;;;;;20.73;15.48;;;;;;;6.06;75.33;99714.81;5056668;28;20437;-72
2022/01/05 05:58:43;;;;;;;22.27;16.15;;;;;;;6.09;75.60;99713.13;5074785;28;20060;-73
2022/01/05 06:01:08;;;;;;;24.35;19.35;;;;;;;6.11;75.23;99721.81;5078567;28;20053;-76
2022/01/05 06:03:34;;;;;;;31.83;16.83;;;;;;;6.19;74.97;99729.66;5074362;28;20052;-79
2022/01/05 06:05:59;;;;;;;30.85;18.00;;;;;;;6.13;75.34;99745.25;5054377;28;20506;-78
2022/01/05 06:08:25;;;;;;;27.73;18.75;;;;;;;6.01;75.84;99726.94;5054996;28;20468;-74
2022/01/05 06:10:51;;;;;;;31.25;18.30;;;;;;;6.22;75.15;99742.72;5067586;28;20037;-74
2022/01/05 06:13:16;;;;;;;22.83;18.52;;;;;;;6.30;75.24;99748.00;5066693;28;20068;-76
2022/01/05 06:15:41;;;;;;;28.00;17.80;;;;;;;6.29;74.46;99715.81;5066630;28;20366;-79
2022/01/05 06:18:07;;;;;;;36.53;19.40;;;;;;;6.09;74.64;99717.47;5065114;28;20047;-80
2022/01/05 06:20:32;;;;;;;24.33;16.67;;;;;;;6.05;75.13;99718.28;5067393;28;20363;-73
2022/01/05 06:22:58;;;;;;;37.25;19.50;;;;;;;6.01;75.23;99716.50;5043998;28;20037;-74
2022/01/05 06:25:23;;;;;;;27.20;18.30;;;;;;;6.24;75.14;99735.78;5043382;28;20044;-76
2022/01/05 06:27:49;;;;;;;23.08;17.65;;;;;;;6.41;74.50;99737.63;5043009;28;20040;-83
2022/01/05 06:30:14;;;;;;;33.17;20.40;;;;;;;6.30;74.34;99742.78;5042420;28;20060;-76
2022/01/05 06:32:42;;;;;;;24.50;18.27;;;;;;;6.46;74.62;99746.31;5042808;28;20033;-74
2022/01/05 06:35:08;;;;;;;20.98;15.93;;;;;;;6.39;74.25;99748.03;5041050;28;20132;-77
2022/01/05 06:37:34;;;;;;;25.27;19.10;;;;;;;6.24;74.94;99732.31;5041526;28;20048;-76
2022/01/05 06:39:59;;;;;;;25.45;18.00;;;;;;;6.45;74.32;99760.22;5039852;28;20536;-74
2022/01/05 06:42:25;;;;;;;43.78;17.77;;;;;;;6.30;74.44;99730.63;5050143;28;20205;-82
2022/01/05 06:44:51;;;;;;;26.48;17.92;;;;;;;6.43;74.56;99731.53;5067705;28;20036;-77
2022/01/05 06:47:17;;;;;;;24.08;17.20;;;;;;;6.45;74.61;99750.66;5068172;28;22589;-75
2022/01/05 06:49:43;;;;;;;21.48;16.52;;;;;;;6.61;73.71;99730.78;5047843;28;20056;-75
2022/01/05 06:52:11;;;;;;;22.55;16.30;;;;;;;6.76;73.63;99750.81;5041516;28;20032;-76
2022/01/05 06:54:39;;;;;;;22.33;15.55;;;;;;;6.64;73.15;99730.78;5040955;28;20131;-75
2022/01/05 06:57:05;;;;;;;20.00;16.15;;;;;;;6.73;73.39;99741.25;5040151;28;20033;-73
2022/01/05 06:59:31;;;;;;;24.48;17.45;;;;;;;6.80;72.82;99729.13;5038232;28;20047;-74
2022/01/05 07:01:56;;;;;;;27.85;17.48;;;;;;;7.12;71.54;99736.22;5042092;28;20068;-73
2022/01/05 07:04:22;;;;;;;22.00;16.40;;;;;;;7.36;71.47;99762.34;5033902;28;20048;-74
2022/01/05 07:06:47;;;;;;;23.83;16.05;;;;;;;7.26;71.83;99759.69;5045393;28;20042;-73
2022/01/05 07:09:13;;;;;;;25.00;15.43;;;;;;;7.41;71.35;99754.53;5034078;28;20034;-72
2022/01/05 07:11:40;;;;;;;22.70;16.10;;;;;;;7.53;71.39;99757.16;5041289;28;20033;-79
2022/01/05 07:14:05;;;;;;;22.52;15.65;;;;;;;7.52;71.00;99739.78;5041034;28;20338;-76
2022/01/05 07:16:31;;;;;;;19.90;14.13;;;;;;;7.57;70.58;99737.16;5055680;28;20044;-75
2022/01/05 07:18:57;;;;;;;23.10;15.98;;;;;;;7.65;70.37;99731.94;5051737;28;20542;-74
2022/01/05 07:21:22;;;;;;;23.08;15.32;;;;;;;8.06;69.80;99741.53;5048657;28;20064;-73
2022/01/05 07:23:48;;;;;;;23.23;14.73;;;;;;;8.04;69.31;99723.25;5061121;28;20024;-79
2022/01/05 07:26:13;;;;;;;20.48;15.32;;;;;;;8.43;68.52;99737.16;5067144;28;20021;-75
2022/01/05 07:28:38;;;;;;;28.60;15.27;;;;;;;8.38;68.24;99728.41;5057443;28;20106;-74
2022/01/05 07:31:04;;;;;;;33.88;15.85;;;;;;;8.46;68.57;99705.78;5061727;28;20071;-74
2022/01/05 07:33:29;;;;;;;24.80;16.30;;;;;;;8.54;68.29;99719.69;5060558;28;20041;-73
2022/01/05 07:35:55;;;;;;;32.53;16.65;;;;;;;8.54;68.26;99713.59;5061773;28;20115;-71
2022/01/05 07:38:21;;;;;;;21.98;14.93;;;;;;;8.88;67.11;99738.75;5062296;28;20486;-72
2022/01/05 07:40:46;;;;;;;20.63;13.85;;;;;;;8.53;67.76;99704.03;5060108;28;20051;-74
2022/01/05 07:43:12;;;;;;;22.33;15.05;;;;;;;8.77;67.00;99721.34;5060901;28;20041;-74
2022/01/05 07:45:37;;;;;;;23.08;14.93;;;;;;;8.78;67.05;99738.78;5062077;28;20040;-73
2022/01/05 07:50:35;;;;;;;22.58;14.77;;;;;;;8.93;66.81;99732.63;5131435;27;20548;-79
2022/01/05 07:53:01;;;;;;;18.98;14.63;;;;;;;8.90;66.73;99733.53;5075168;28;20486;-71
2022/01/05 07:55:30;;;;;;;22.80;14.10;;;;;;;9.13;66.44;99748.22;5057089;28;20480;-75
2022/01/05 07:57:56;;;;;;;24.02;16.27;;;;;;;9.28;66.19;99753.41;5057811;28;20399;-77
2022/01/05 08:00:21;;;;;;;24.85;14.02;;;;;;;9.23;66.92;99761.28;5075660;28;20037;-73
2022/01/05 08:02:47;;;;;;;28.48;15.13;;;;;;;9.19;66.71;99748.22;5072398;28;20454;-75
2022/01/05 08:05:12;;;;;;;19.67;14.88;;;;;;;9.02;67.07;99728.22;5058656;28;20198;-78
2022/01/05 08:07:38;;;;;;;25.95;15.32;;;;;;;9.14;66.39;99734.28;5070907;28;20131;-75
2022/01/05 08:10:04;;;;;;;23.80;13.77;;;;;;;9.12;66.89;99754.34;5054661;28;20040;-75
2022/01/05 08:12:29;;;;;;;22.27;14.75;;;;;;;9.41;66.27;99749.84;5072929;28;20064;-72
2022/01/05 08:14:55;;;;;;;19.90;13.98;;;;;;;9.33;66.45;99762.09;5073700;28;20323;-77
2022/01/05 08:17:20;;;;;;;21.75;12.57;;;;;;;9.58;65.66;99748.88;5069582;28;20028;-72
2022/01/05 08:19:46;;;;;;;20.13;13.80;;;;;;;9.65;65.31;99761.03;5074208;28;20036;-73
2022/01/05 08:22:11;;;;;;;21.13;13.40;;;;;;;9.75;65.66;99743.50;5074736;28;20441;-73
2022/01/05 08:24:37;;;;;;;26.65;15.85;;;;;;;9.51;65.74;99741.03;5078452;28;20426;-71
2022/01/05 08:27:03;;;;;;;19.75;14.57;;;;;;;9.81;65.37;99756.53;5091786;28;20031;-74
2022/01/05 08:29:28;;;;;;;25.77;15.93;;;;;;;9.79;65.16;99760.94;5073460;28;20467;-72
2022/01/05 08:31:54;;;;;;;22.75;15.75;;;;;;;9.83;64.36;99737.31;5079516;28;20048;-73
2022/01/05 08:34:19;;;;;;;23.50;15.85;;;;;;;9.95;64.22;99736.34;5091262;28;20394;-71
2022/01/05 08:36:45;;;;;;;18.60;13.50;;;;;;;9.78;64.83;99744.34;5085357;28;20063;-72
2022/01/05 08:39:10;;;;;;;21.88;15.68;;;;;;;9.72;64.25;99737.41;5083857;28;20036;-73
2022/01/05 08:41:37;;;;;;;21.35;15.30;;;;;;;9.73;64.09;99717.31;5089768;28;20533;-72
2022/01/05 08:44:03;;;;;;;23.25;13.90;;;;;;;9.93;63.94;99733.75;5066411;28;20037;-72
2022/01/05 08:46:28;;;;;;;23.77;15.15;;;;;;;9.93;64.53;99740.75;5076279;28;20043;-77
2022/01/05 08:48:54;;;;;;;15.38;12.48;;;;;;;9.88;64.26;99740.78;5063088;28;20101;-74
2022/01/05 08:51:19;;;;;;;17.63;13.52;;;;;;;10.19;63.82;99745.75;5053741;28;20119;-72
2022/01/05 08:53:45;;;;;;;20.83;15.15;;;;;;;10.19;63.71;99737.03;5051061;28;20040;-72
2022/01/05 08:56:11;;;;;;;19.25;14.60;;;;;;;10.39;63.51;99757.81;5052567;28;20401;-71
2022/01/05 08:58:36;;;;;;;23.15;15.60;;;;;;;10.26;63.42;99729.06;5050104;28;20078;-73
2022/01/05 09:01:03;;;;;;;24.60;16.65;;;;;;;10.04;63.87;99728.38;5041714;28;20362;-74
2022/01/05 09:03:28;;;;;;;19.90;14.02;;;;;;;10.20;62.98;99712.53;5040028;28;20084;-73
2022/01/05 09:05:54;;;;;;;24.63;15.45;;;;;;;10.37;62.80;99715.00;5040606;28;20056;-73
2022/01/05 09:08:19;;;;;;;28.08;16.80;;;;;;;10.55;63.25;99741.03;5039388;28;20037;-76
2022/01/05 09:10:45;;;;;;;17.83;14.02;;;;;;;10.54;62.34;99726.19;5039429;28;20045;-71
2022/01/05 09:13:12;;;;;;;23.77;14.82;;;;;;;10.58;62.68;99714.75;5036161;28;20069;-72
2022/01/05 09:15:39;;;;;;;20.27;14.40;;;;;;;10.61;62.80;99719.13;5036905;28;20037;-72
2022/01/05 09:18:04;;;;;;;19.35;13.93;;;;;;;10.74;61.88;99736.47;5029210;28;20489;-73
2022/01/05 09:20:32;;;;;;;26.23;15.73;;;;;;;10.44;61.68;99683.47;5040458;28;20060;-78
2022/01/05 09:22:58;;;;;;;20.85;14.98;;;;;;;10.66;62.33;99726.06;5037291;28;20388;-72
2022/01/05 09:25:24;;;;;;;17.50;13.70;;;;;;;10.73;61.83;99726.88;5036040;28;20056;-73
2022/01/05 09:27:51;;;;;;;21.75;15.02;;;;;;;10.75;61.43;99731.19;5035748;28;20045;-76
2022/01/05 09:30:18;;;;;;;20.90;15.32;;;;;;;10.80;61.27;99723.28;5031459;28;20455;-73
2022/01/05 09:32:44;;;;;;;26.42;15.35;;;;;;;10.94;61.86;99723.09;5019422;28;20088;-76
2022/01/05 09:35:14;;;;;;;23.48;14.70;;;;;;;11.04;60.84;99719.47;5018782;28;20072;-73
2022/01/05 09:37:51;;;;;;;21.80;14.57;;;;;;;10.55;61.73;99694.69;5016857;28;20137;-73
2022/01/05 09:43:04;;;;;;;20.95;14.60;;;;;;;11.12;60.92;99704.50;5037297;28;20480;-72
2022/01/05 09:45:33;;;;;;;16.92;13.48;;;;;;;11.19;60.55;99702.63;5031473;28;20504;-72
2022/01/05 09:48:19;;;;;;;24.25;17.30;;;;;;;11.00;60.92;99678.38;5019185;28;20095;-72
2022/01/05 09:51:01;;;;;;;19.67;14.15;;;;;;;11.13;60.70;99692.22;5017815;28;20779;-73
2022/01/05 09:53:30;;;;;;;25.20;15.23;;;;;;;11.16;60.85;99700.06;5038797;28;20144;-73
2022/01/05 09:55:56;;;;;;;19.95;15.30;;;;;;;11.07;61.49;99694.91;5038044;28;20121;-72
2022/01/05 09:58:23;;;;;;;22.40;14.43;;;;;;;11.33;60.58;99698.06;5039396;28;20045;-67
2022/01/05 10:00:51;;;;;;;20.00;13.13;;;;;;;11.38;60.17;99700.63;5032801;28;20049;-67
2022/01/05 10:03:16;;;;;;;21.23;14.70;;;;;;;11.34;60.35;99691.06;5034655;28;20056;-66
2022/01/05 10:05:42;;;;;;;15.80;12.77;;;;;;;11.28;60.13;99681.47;5037888;28;20142;-72
2022/01/05 10:08:09;;;;;;;19.35;12.70;;;;;;;11.49;59.95;99695.19;5037909;28;20532;-73
2022/01/05 10:10:34;;;;;;;19.20;13.73;;;;;;;11.65;59.46;99666.94;5040830;28;20044;-72
2022/01/05 10:13:00;;;;;;;17.15;13.15;;;;;;;11.69;59.45;99692.28;5037796;28;20397;-72
2022/01/05 10:15:26;;;;;;;18.42;12.57;;;;;;;11.91;59.07;99661.25;5039128;28;20459;-72
2022/01/05 10:18:11;;;;;;;15.80;12.82;;;;;;;11.96;58.91;99660.28;5035443;28;20045;-74
2022/01/05 10:20:37;;;;;;;19.83;13.95;;;;;;;11.95;58.71;99661.16;5038564;28;20147;-77
2022/01/05 10:23:03;;;;;;;18.10;13.07;;;;;;;11.90;58.40;99662.16;5036093;28;20465;-73
2022/01/05 10:25:28;;;;;;;20.52;15.15;;;;;;;12.21;58.68;99662.47;5035498;28;20041;-75
2022/01/05 10:27:58;;;;;;;26.20;13.55;;;;;;;12.22;57.32;99656.28;5035057;28;22076;-77
2022/01/05 10:30:34;;;;;;;17.30;12.48;;;;;;;12.15;58.63;99676.59;5035921;28;20397;-76
2022/01/05 10:32:59;;;;;;;30.83;14.23;;;;;;;12.06;58.60;99658.34;5033951;28;20037;-73
2022/01/05 10:35:27;;;;;;;18.73;14.90;;;;;;;12.11;58.09;99659.13;5037636;28;20033;-74
2022/01/05 10:37:59;;;;;;;16.77;13.00;;;;;;;12.15;58.31;99654.66;5038547;28;20029;-74
2022/01/05 10:40:25;;;;;;;25.23;14.50;;;;;;;12.59;58.30;99666.09;5035525;28;20048;-75
2022/01/05 10:42:54;;;;;;;16.52;11.27;;;;;;;12.70;57.05;99668.53;5036681;28;20063;-74
2022/01/05 10:45:48;;;;;;;19.73;13.05;;;;;;;12.91;56.87;99644.38;5031974;28;20053;-81
2022/01/05 10:48:16;;;;;;;17.75;12.93;;;;;;;13.13;56.33;99638.63;5016715;28;20053;-74
2022/01/05 10:50:43;;;;;;;22.65;13.85;;;;;;;13.08;55.81;99659.78;5054800;28;20044;-74
2022/01/05 10:53:14;;;;;;;16.27;12.38;;;;;;;12.99;56.32;99655.59;5042118;28;20036;-74
2022/01/05 10:55:43;;;;;;;18.35;12.77;;;;;;;13.31;57.02;99643.50;5072395;28;20050;-74
2022/01/05 10:58:16;;;;;;;20.98;12.25;;;;;;;13.75;55.61;99672.31;5077634;28;20531;-74
2022/01/05 11:02:41;;;;;;;18.10;13.60;;;;;;;14.20;54.10;99664.97;5058021;28;20636;-74
2022/01/05 11:05:06;;;;;;;19.00;12.10;;;;;;;13.58;55.89;99649.00;5016851;27;20033;-75
2022/01/05 11:07:34;;;;;;;16.92;12.30;;;;;;;13.48;55.96;99651.00;5016663;28;20038;-73
2022/01/05 11:10:05;;;;;;;22.58;12.55;;;;;;;13.23;56.45;99679.66;5013641;28;20073;-73
2022/01/05 11:12:32;;;;;;;19.27;12.35;;;;;;;13.23;56.34;99653.31;5015282;28;20049;-80
2022/01/05 11:15:17;;;;;;;17.38;11.50;;;;;;;13.17;55.97;99641.13;5017567;28;20037;-73
2022/01/05 11:18:18;;;;;;;17.83;12.00;;;;;;;12.93;56.96;99631.19;5012633;28;20069;-70
2022/01/05 11:20:55;;;;;;;21.67;11.85;;;;;;;13.08;57.59;99634.31;5016187;28;20045;-73
2022/01/05 11:23:26;;;;;;;22.63;13.70;;;;;;;13.68;55.95;99621.50;5018140;28;20454;-71
2022/01/05 11:25:55;;;;;;;33.25;13.45;;;;;;;13.64;55.38;99625.13;5016803;28;20070;-73
2022/01/05 11:28:23;;;;;;;18.00;13.73;;;;;;;13.61;56.31;99626.06;5016822;28;20050;-71
2022/01/05 11:30:51;;;;;;;17.50;12.10;;;;;;;13.54;56.31;99629.75;5019748;28;20064;-70